createdAt,value
2023-03-24T00:03:25.480Z,-216.00
2023-03-24T00:08:34.452Z,-216.00
2023-03-24T00:13:43.506Z,-180.00
2023-03-24T00:18:51.329Z,-180.00
2023-03-24T00:24:03.982Z,-216.00
2023-03-24T00:29:11.670Z,-180.00
2023-03-24T00:34:19.501Z,-216.00
2023-03-24T00:39:27.232Z,-180.00
2023-03-24T00:44:34.919Z,-180.00
2023-03-24T00:49:51.761Z,-180.00
2023-03-24T00:54:59.282Z,-216.00
2023-03-24T01:00:07.011Z,-216.00
2023-03-24T01:06:08.642Z,-216.00
2023-03-24T01:10:36.145Z,-180.00
2023-03-24T01:15:43.829Z,-216.00
2023-03-24T01:21:03.056Z,-216.00
2023-03-24T01:26:10.495Z,-216.00
2023-03-24T01:31:29.030Z,-180.00
2023-03-24T01:36:36.452Z,-216.00
2023-03-24T01:41:50.301Z,-216.00
2023-03-24T01:46:57.658Z,-216.00
2023-03-24T01:52:05.065Z,-180.00
2023-03-24T01:57:12.614Z,-180.00
2023-03-24T02:02:19.985Z,-180.00
2023-03-24T02:07:27.572Z,-180.00
2023-03-24T02:12:35.303Z,-216.00
2023-03-24T02:17:42.647Z,-216.00
2023-03-24T02:22:50.233Z,-180.00
2023-03-24T02:27:57.729Z,-216.00
2023-03-24T02:33:05.129Z,-180.00
2023-03-24T02:38:12.451Z,-216.00
2023-03-24T02:43:27.410Z,-216.00
2023-03-24T02:48:32.703Z,-216.00
2023-03-24T02:53:40.189Z,-216.00
2023-03-24T02:58:47.727Z,-180.00
2023-03-24T03:03:59.835Z,-216.00
2023-03-24T03:09:44.247Z,-180.00
2023-03-24T03:14:51.599Z,-216.00
2023-03-24T03:19:59.184Z,-216.00
2023-03-24T03:25:06.486Z,-216.00
2023-03-24T03:30:14.137Z,-216.00
2023-03-24T03:35:21.628Z,-216.00
2023-03-24T03:40:29.148Z,-216.00
2023-03-24T03:45:36.680Z,-216.00
2023-03-24T03:50:44.369Z,-180.00
2023-03-24T03:55:51.773Z,-216.00
2023-03-24T04:01:03.189Z,-180.00
2023-03-24T04:06:15.348Z,-180.00
2023-03-24T04:11:22.708Z,-216.00
2023-03-24T04:16:30.344Z,-216.00
2023-03-24T04:21:37.843Z,-216.00
2023-03-24T04:26:45.374Z,-216.00
2023-03-24T04:31:52.946Z,-180.00
2023-03-24T04:37:00.140Z,-180.00
2023-03-24T04:42:07.575Z,-216.00
2023-03-24T04:47:15.132Z,-216.00
2023-03-24T04:52:22.504Z,-180.00
2023-03-24T04:57:29.743Z,-180.00
2023-03-24T05:02:37.127Z,-180.00
2023-03-24T05:07:44.250Z,-216.00
2023-03-24T05:12:51.454Z,-216.00
2023-03-24T05:17:58.812Z,-216.00
2023-03-24T05:23:06.057Z,-144.00
2023-03-24T05:28:13.243Z,-216.00
2023-03-24T05:33:20.579Z,-180.00
2023-03-24T05:38:27.723Z,-180.00
2023-03-24T05:43:34.909Z,-180.00
2023-03-24T05:48:42.100Z,-180.00
2023-03-24T05:53:49.243Z,-180.00
2023-03-24T05:58:56.450Z,-180.00
2023-03-24T06:04:03.748Z,-180.00
2023-03-24T06:09:10.813Z,-180.00
2023-03-24T06:14:18.095Z,-180.00
2023-03-24T06:19:25.389Z,-144.00
2023-03-24T06:24:32.657Z,-108.00
2023-03-24T06:29:39.867Z,-108.00
2023-03-24T06:34:47.061Z,-108.00
2023-03-24T06:39:54.226Z,-108.00
2023-03-24T06:45:01.435Z,-72.00
2023-03-24T06:50:08.705Z,-72.00
2023-03-24T06:55:15.871Z,-36.00
2023-03-24T07:00:23.151Z,-36.00
2023-03-24T07:05:30.347Z,36.00
2023-03-24T07:10:37.514Z,72.00
2023-03-24T07:15:44.682Z,36.00
2023-03-24T07:20:51.917Z,0.00
2023-03-24T07:25:59.120Z,0.00
2023-03-24T07:31:06.374Z,0.00
2023-03-24T07:36:13.701Z,-36.00
2023-03-24T07:41:20.725Z,-72.00
2023-03-24T07:46:27.944Z,-72.00
2023-03-24T07:51:38.482Z,-72.00
2023-03-24T07:56:42.319Z,-72.00
2023-03-24T08:01:51.497Z,-72.00
2023-03-24T08:06:56.845Z,13896.00
2023-03-24T08:12:13.519Z,14220.00
2023-03-24T08:17:11.130Z,14760.00
2023-03-24T08:22:18.450Z,12780.00
2023-03-24T08:27:25.582Z,13716.00
2023-03-24T08:32:32.796Z,12780.00
2023-03-24T08:37:40.004Z,12240.00
2023-03-24T08:42:47.165Z,11664.00
2023-03-24T08:47:54.445Z,10944.00
2023-03-24T08:53:01.644Z,13500.00
2023-03-24T08:58:08.780Z,15372.00
2023-03-24T09:03:15.981Z,12672.00
2023-03-24T09:08:23.209Z,13212.00
2023-03-24T09:13:30.358Z,12132.00
2023-03-24T09:18:37.530Z,10836.00
2023-03-24T09:23:44.918Z,13536.00
2023-03-24T09:28:52.007Z,18324.00
2023-03-24T09:33:59.400Z,21456.00
2023-03-24T09:39:06.609Z,22320.00
2023-03-24T09:44:13.847Z,22140.00
2023-03-24T09:49:21.247Z,23184.00
2023-03-24T09:54:28.591Z,21672.00
2023-03-24T09:59:35.852Z,20160.00
2023-03-24T10:04:43.188Z,19440.00
2023-03-24T10:09:50.476Z,19980.00
2023-03-24T10:14:57.798Z,20340.00
2023-03-24T10:20:05.094Z,22104.00
2023-03-24T10:25:12.457Z,22104.00
2023-03-24T10:30:19.592Z,22536.00
2023-03-24T10:35:26.796Z,18900.00
2023-03-24T10:40:34.044Z,15336.00
2023-03-24T10:45:41.268Z,14364.00
2023-03-24T10:50:48.401Z,14724.00
2023-03-24T10:55:55.662Z,15588.00
2023-03-24T11:01:03.024Z,18720.00
2023-03-24T11:06:10.048Z,15120.00
2023-03-24T11:11:17.219Z,14292.00
2023-03-24T11:16:24.453Z,12348.00
2023-03-24T11:21:31.616Z,11844.00
2023-03-24T11:26:38.807Z,13860.00
2023-03-24T11:31:45.942Z,14724.00
2023-03-24T11:36:53.317Z,19548.00
2023-03-24T11:42:00.494Z,20340.00
2023-03-24T11:47:07.746Z,20592.00
2023-03-24T11:52:14.969Z,13716.00
2023-03-24T11:57:22.192Z,13032.00
2023-03-24T12:02:29.383Z,9216.00
2023-03-24T12:07:36.590Z,11988.00
2023-03-24T12:12:43.843Z,14112.00
2023-03-24T12:17:51.017Z,16200.00
2023-03-24T12:22:58.199Z,18396.00
2023-03-24T12:28:05.401Z,18072.00
2023-03-24T12:33:12.656Z,16668.00
2023-03-24T12:38:19.873Z,17352.00
2023-03-24T12:43:27.071Z,22104.00
2023-03-24T12:48:34.210Z,24804.00
2023-03-24T12:53:41.389Z,21168.00
2023-03-24T12:58:48.612Z,16272.00
2023-03-24T13:03:55.859Z,12168.00
2023-03-24T13:09:03.047Z,8100.00
2023-03-24T13:14:10.351Z,6048.00
2023-03-24T13:19:17.548Z,5328.00
2023-03-24T13:24:24.801Z,6624.00
2023-03-24T13:29:41.787Z,6228.00
2023-03-24T13:34:39.270Z,10296.00
2023-03-24T13:39:46.497Z,10692.00
2023-03-24T13:44:53.732Z,12456.00
2023-03-24T13:50:00.962Z,9720.00
2023-03-24T13:55:08.126Z,9360.00
2023-03-24T14:00:15.327Z,7020.00
2023-03-24T14:05:22.520Z,7272.00
2023-03-24T14:10:29.683Z,5544.00
2023-03-24T14:15:36.971Z,6804.00
2023-03-24T14:20:44.141Z,15912.00
2023-03-24T14:25:52.397Z,14976.00
2023-03-24T14:30:59.653Z,10656.00
2023-03-24T14:36:07.038Z,11988.00
2023-03-24T14:41:14.057Z,11556.00
2023-03-24T14:46:21.373Z,15552.00
2023-03-24T14:51:28.449Z,15156.00
2023-03-24T14:56:35.691Z,17028.00
2023-03-24T15:01:42.883Z,16056.00
2023-03-24T15:06:49.993Z,6192.00
2023-03-24T15:11:57.262Z,3132.00
2023-03-24T15:17:04.481Z,3564.00
2023-03-24T15:22:11.664Z,5616.00
2023-03-24T15:27:18.867Z,6732.00
2023-03-24T15:32:26.080Z,6984.00
2023-03-24T15:37:33.263Z,5220.00
2023-03-24T15:42:40.508Z,5184.00
2023-03-24T15:47:47.763Z,5616.00
2023-03-24T15:52:54.865Z,6120.00
2023-03-24T15:58:02.151Z,4932.00
2023-03-24T16:03:09.585Z,5076.00
2023-03-24T16:08:16.644Z,4320.00
2023-03-24T16:13:23.987Z,5904.00
2023-03-24T16:18:31.210Z,6696.00
2023-03-24T16:23:38.412Z,4752.00
2023-03-24T16:28:45.565Z,2880.00
2023-03-24T16:33:52.774Z,3168.00
2023-03-24T16:38:59.936Z,3060.00
2023-03-24T16:44:07.084Z,11844.00
2023-03-24T16:49:14.349Z,12348.00
2023-03-24T16:54:21.551Z,11592.00
2023-03-24T16:59:28.990Z,12456.00
2023-03-24T17:04:36.584Z,12060.00
2023-03-24T17:09:43.569Z,11304.00
2023-03-24T17:14:50.824Z,11016.00
2023-03-24T17:19:58.340Z,10620.00
2023-03-24T17:25:06.553Z,10620.00
2023-03-24T17:30:13.693Z,10224.00
2023-03-24T17:35:20.957Z,10332.00
2023-03-24T17:40:28.158Z,10404.00
2023-03-24T17:45:35.414Z,10548.00
2023-03-24T17:50:42.692Z,10368.00
2023-03-24T17:55:50.190Z,10260.00
2023-03-24T18:00:57.868Z,10332.00
2023-03-24T18:06:05.227Z,10368.00
2023-03-24T18:11:12.768Z,10512.00
2023-03-24T18:16:21.826Z,10476.00
2023-03-24T18:21:27.294Z,10296.00
2023-03-24T18:26:34.842Z,10260.00
2023-03-24T18:31:44.123Z,9972.00
2023-03-24T18:36:51.786Z,10044.00
2023-03-24T18:41:59.422Z,9936.00
2023-03-24T18:47:07.046Z,9972.00
2023-03-24T18:52:14.512Z,10044.00
2023-03-24T18:57:22.065Z,10044.00
2023-03-24T19:02:29.735Z,10044.00
2023-03-24T19:07:37.417Z,9972.00
2023-03-24T19:12:44.938Z,10044.00
2023-03-24T19:17:52.653Z,10116.00
2023-03-24T19:23:00.273Z,10080.00
2023-03-24T19:28:07.861Z,10080.00
2023-03-24T19:33:15.287Z,10224.00
2023-03-24T19:38:22.920Z,10116.00
2023-03-24T19:43:30.492Z,10224.00
2023-03-24T19:48:38.021Z,10116.00
2023-03-24T19:53:45.746Z,10116.00
2023-03-24T19:58:53.644Z,10260.00
2023-03-24T20:04:01.324Z,10008.00
2023-03-24T20:09:09.003Z,10080.00
2023-03-24T20:14:16.610Z,10116.00
2023-03-24T20:19:24.215Z,10332.00
2023-03-24T20:24:31.947Z,10296.00
2023-03-24T20:29:39.697Z,10152.00
2023-03-24T20:34:47.356Z,10332.00
2023-03-24T20:39:54.812Z,10188.00
2023-03-24T20:45:02.021Z,10296.00
2023-03-24T20:50:09.235Z,10368.00
2023-03-24T20:55:16.835Z,10476.00
2023-03-24T21:00:24.404Z,10332.00
2023-03-24T21:05:32.118Z,10476.00
2023-03-24T21:10:42.734Z,10476.00
2023-03-24T21:15:50.332Z,10440.00
2023-03-24T21:20:57.443Z,10368.00
2023-03-24T21:26:04.971Z,10476.00
2023-03-24T21:31:12.400Z,10440.00
2023-03-24T21:36:19.621Z,10296.00
2023-03-24T21:41:26.859Z,10224.00
2023-03-24T21:46:33.988Z,10908.00
2023-03-24T21:51:41.194Z,10872.00
2023-03-24T21:56:48.625Z,10872.00
2023-03-24T22:01:55.940Z,10872.00
2023-03-24T22:07:03.160Z,10836.00
2023-03-24T22:12:10.468Z,10872.00
2023-03-24T22:17:17.820Z,10944.00
2023-03-24T22:22:25.004Z,10512.00
2023-03-24T22:27:32.338Z,10368.00
2023-03-24T22:32:39.692Z,10440.00
2023-03-24T22:37:46.850Z,10152.00
2023-03-24T22:42:54.073Z,10836.00
2023-03-24T22:48:01.362Z,10980.00
2023-03-24T22:53:08.559Z,10836.00
2023-03-24T22:58:15.900Z,10872.00
2023-03-24T23:03:23.220Z,10836.00
2023-03-24T23:08:30.369Z,10548.00
2023-03-24T23:13:37.631Z,10224.00
2023-03-24T23:18:44.794Z,10152.00
2023-03-24T23:23:52.015Z,11196.00
2023-03-24T23:28:59.234Z,11124.00
2023-03-24T23:34:06.505Z,11088.00
2023-03-24T23:39:13.659Z,11160.00
2023-03-24T23:44:20.896Z,11160.00
2023-03-24T23:49:28.161Z,11340.00
2023-03-24T23:54:35.432Z,10908.00
2023-03-24T23:59:42.736Z,10512.00
